createdAt,value
2016-07-31T00:00:33.459Z,16.85
2016-07-31T00:01:33.514Z,16.9
2016-07-31T00:02:33.356Z,16.91
2016-07-31T00:03:33.367Z,16.77
2016-07-31T00:04:33.523Z,16.77
2016-07-31T00:05:33.464Z,16.73
2016-07-31T00:06:33.486Z,16.8
2016-07-31T00:07:33.385Z,16.8
2016-07-31T00:08:33.460Z,16.72
2016-07-31T00:09:33.544Z,16.81
2016-07-31T00:10:33.458Z,16.72
2016-07-31T00:11:33.456Z,16.82
2016-07-31T00:12:33.396Z,16.81
2016-07-31T00:13:33.407Z,16.8
2016-07-31T00:14:33.476Z,16.77
2016-07-31T00:15:33.417Z,16.73
2016-07-31T00:16:33.408Z,16.72
2016-07-31T00:17:33.497Z,16.73
2016-07-31T00:18:33.494Z,16.74
2016-07-31T00:19:33.578Z,16.59
2016-07-31T00:20:33.512Z,16.65
2016-07-31T00:21:33.493Z,16.62
2016-07-31T00:22:33.440Z,16.66
2016-07-31T00:23:33.427Z,16.65
2016-07-31T00:24:33.573Z,16.59
2016-07-31T00:25:33.434Z,16.62
2016-07-31T00:26:33.567Z,16.63
2016-07-31T00:27:33.511Z,16.57
2016-07-31T00:28:33.441Z,16.57
2016-07-31T00:29:33.598Z,16.52
2016-07-31T00:30:33.473Z,16.57
2016-07-31T00:31:33.524Z,16.62
2016-07-31T00:32:33.602Z,16.49
2016-07-31T00:33:33.452Z,16.51
2016-07-31T00:34:33.540Z,16.47
2016-07-31T00:35:33.541Z,16.42
2016-07-31T00:36:33.548Z,16.44
2016-07-31T00:37:33.473Z,16.39
2016-07-31T00:38:33.543Z,16.36
2016-07-31T00:39:33.469Z,16.4
2016-07-31T00:40:33.626Z,16.36
2016-07-31T00:41:33.470Z,16.36
2016-07-31T00:42:33.553Z,16.33
2016-07-31T00:43:33.632Z,16.33
2016-07-31T00:44:33.552Z,16.33
2016-07-31T00:45:33.572Z,16.26
2016-07-31T00:46:33.647Z,16.33
2016-07-31T00:47:33.573Z,16.25
2016-07-31T00:48:33.580Z,16.26
2016-07-31T00:49:33.534Z,16.21
2016-07-31T00:50:33.591Z,16.21
2016-07-31T00:51:33.594Z,16.18
2016-07-31T00:52:33.583Z,16.16
2016-07-31T00:53:33.663Z,16.07
2016-07-31T00:54:33.587Z,15.98
2016-07-31T00:55:33.517Z,16.07
2016-07-31T00:56:33.588Z,16.16
2016-07-31T00:57:33.607Z,16.17
2016-07-31T00:58:33.528Z,16.11
2016-07-31T00:59:33.540Z,16.18
2016-07-31T01:00:33.606Z,16.11
2016-07-31T01:01:33.637Z,16.26
2016-07-31T01:02:33.644Z,16.21
2016-07-31T01:03:33.606Z,16.04
2016-07-31T01:04:33.548Z,16.06
2016-07-31T01:05:33.631Z,16.13
2016-07-31T01:06:33.641Z,16.14
2016-07-31T01:07:33.569Z,16.13
2016-07-31T01:08:33.638Z,16.06
2016-07-31T01:09:33.551Z,15.95
2016-07-31T01:10:33.703Z,16.04
2016-07-31T01:11:33.720Z,16.02
2016-07-31T01:12:33.572Z,15.91
2016-07-31T01:13:33.653Z,15.96
2016-07-31T01:14:33.647Z,15.91
2016-07-31T01:15:33.566Z,15.95
2016-07-31T01:16:33.660Z,15.99
2016-07-31T01:17:33.646Z,15.92
2016-07-31T01:18:33.676Z,15.96
2016-07-31T01:19:33.662Z,16.06
2016-07-31T01:20:33.670Z,16.07
2016-07-31T01:21:33.614Z,16.14
2016-07-31T01:22:33.733Z,16.18
2016-07-31T01:23:33.758Z,16.14
2016-07-31T01:24:33.671Z,16.16
2016-07-31T01:25:33.598Z,16.13
2016-07-31T01:26:33.605Z,16.14
2016-07-31T01:27:33.686Z,16.29
2016-07-31T01:28:33.619Z,16.1
2016-07-31T01:29:33.712Z,16.21
2016-07-31T01:30:33.698Z,16.1
2016-07-31T01:31:33.648Z,16.1
2016-07-31T01:32:33.700Z,16.13
2016-07-31T01:33:33.772Z,16.17
2016-07-31T01:34:33.764Z,16.14
2016-07-31T01:35:33.775Z,16.14
2016-07-31T01:36:33.638Z,16.11
2016-07-31T01:37:33.785Z,16.14
2016-07-31T01:38:33.812Z,16.17
2016-07-31T01:39:33.799Z,16.14
2016-07-31T01:40:33.804Z,16.25
2016-07-31T01:41:33.795Z,16.22
2016-07-31T01:42:33.758Z,16.18
2016-07-31T01:43:33.793Z,16.26
2016-07-31T01:44:33.651Z,16.25
2016-07-31T01:45:33.857Z,16.32
2016-07-31T01:46:33.740Z,16.22
2016-07-31T01:47:33.735Z,16.18
2016-07-31T01:48:33.729Z,16.3
2016-07-31T01:49:33.806Z,16.21
2016-07-31T01:50:33.753Z,16.16
2016-07-31T01:51:33.700Z,16.21
2016-07-31T01:52:33.768Z,16.29
2016-07-31T01:53:33.818Z,16.29
2016-07-31T01:54:33.692Z,16.25
2016-07-31T01:55:33.833Z,16.29
2016-07-31T01:56:33.694Z,16.29
2016-07-31T01:57:33.772Z,16.36
2016-07-31T01:58:33.853Z,16.33
2016-07-31T01:59:33.863Z,16.29
2016-07-31T02:00:33.714Z,16.36
2016-07-31T02:01:33.774Z,16.33
2016-07-31T02:02:33.711Z,16.33
2016-07-31T02:03:33.794Z,16.4
2016-07-31T02:04:33.788Z,16.42
2016-07-31T02:05:33.853Z,16.44
2016-07-31T02:06:33.723Z,16.52
2016-07-31T02:07:33.792Z,16.48
2016-07-31T02:08:33.795Z,16.47
2016-07-31T02:09:33.889Z,16.52
2016-07-31T02:10:33.733Z,16.51
2016-07-31T02:11:33.806Z,16.57
2016-07-31T02:12:33.829Z,16.54
2016-07-31T02:13:33.816Z,16.57
2016-07-31T02:14:33.822Z,16.52
2016-07-31T02:15:33.909Z,16.59
2016-07-31T02:16:33.817Z,16.65
2016-07-31T02:17:33.832Z,16.55
2016-07-31T02:18:33.752Z,16.67
2016-07-31T02:19:33.836Z,16.66
2016-07-31T02:20:33.911Z,16.62
2016-07-31T02:21:33.908Z,16.58
2016-07-31T02:22:33.840Z,16.7
2016-07-31T02:23:33.935Z,16.65
2016-07-31T02:24:33.855Z,16.65
2016-07-31T02:25:33.768Z,16.65
2016-07-31T02:26:33.937Z,16.72
2016-07-31T02:27:33.989Z,16.7
2016-07-31T02:28:33.936Z,16.74
2016-07-31T02:29:33.865Z,16.67
2016-07-31T02:30:33.791Z,16.73
2016-07-31T02:31:33.862Z,16.67
2016-07-31T02:32:33.811Z,16.69
2016-07-31T02:33:33.887Z,16.7
2016-07-31T02:34:33.865Z,16.59
2016-07-31T02:35:33.805Z,16.67
2016-07-31T02:36:33.935Z,16.72
2016-07-31T02:37:33.876Z,16.66
2016-07-31T02:38:33.883Z,16.8
2016-07-31T02:39:33.815Z,16.69
2016-07-31T02:40:33.968Z,16.72
2016-07-31T02:41:33.903Z,16.76
2016-07-31T02:42:33.940Z,16.67
2016-07-31T02:43:33.822Z,16.63
2016-07-31T02:44:33.857Z,16.74
2016-07-31T02:45:33.986Z,16.67
2016-07-31T02:46:33.986Z,16.76
2016-07-31T02:47:33.913Z,16.7
2016-07-31T02:48:33.912Z,16.7
2016-07-31T02:49:33.837Z,16.65
2016-07-31T02:50:33.836Z,16.7
2016-07-31T02:51:33.923Z,16.77
2016-07-31T02:52:33.915Z,16.77
2016-07-31T02:53:33.854Z,16.76
2016-07-31T02:54:33.927Z,16.77
2016-07-31T02:55:33.865Z,16.82
2016-07-31T02:56:34.004Z,16.85
2016-07-31T02:57:33.977Z,16.81
2016-07-31T02:58:33.947Z,16.85
2016-07-31T02:59:34.021Z,16.9
2016-07-31T03:00:33.943Z,16.9
2016-07-31T03:01:33.948Z,16.88
2016-07-31T03:02:33.949Z,16.91
2016-07-31T03:03:33.884Z,16.88
2016-07-31T03:04:33.952Z,16.85
2016-07-31T03:05:33.912Z,16.94
2016-07-31T03:06:33.884Z,16.88
2016-07-31T03:07:33.964Z,16.9
2016-07-31T03:08:33.970Z,16.87
2016-07-31T03:09:33.998Z,16.9
2016-07-31T03:10:33.901Z,16.91
2016-07-31T03:11:33.971Z,16.91
2016-07-31T03:12:34.049Z,16.97
2016-07-31T03:13:33.923Z,16.99
2016-07-31T03:14:33.976Z,16.88
2016-07-31T03:15:33.980Z,17
2016-07-31T03:16:33.909Z,16.97
2016-07-31T03:17:33.928Z,17.03
2016-07-31T03:18:33.994Z,17.06
2016-07-31T03:19:33.916Z,17.05
2016-07-31T03:20:33.928Z,17
2016-07-31T03:21:34.074Z,16.97
2016-07-31T03:22:33.998Z,16.91
2016-07-31T03:23:34.024Z,16.94
2016-07-31T03:24:34.032Z,16.85
2016-07-31T03:25:34.011Z,16.95
2016-07-31T03:26:34.085Z,16.99
2016-07-31T03:27:34.066Z,17.03
2016-07-31T03:28:33.959Z,16.99
2016-07-31T03:29:34.034Z,17.02
2016-07-31T03:30:34.036Z,16.97
2016-07-31T03:31:34.110Z,16.92
2016-07-31T03:32:34.114Z,16.92
2016-07-31T03:33:33.960Z,16.92
2016-07-31T03:34:34.126Z,17.02
2016-07-31T03:35:34.110Z,17.02
2016-07-31T03:36:34.040Z,16.99
2016-07-31T03:37:34.055Z,17.02
2016-07-31T03:38:34.054Z,17.02
2016-07-31T03:39:33.971Z,17.07
2016-07-31T03:40:34.054Z,17.02
2016-07-31T03:41:34.075Z,16.99
2016-07-31T03:42:34.066Z,16.92
2016-07-31T03:44:34.064Z,16.99
2016-07-31T03:45:34.144Z,16.87
2016-07-31T03:46:33.998Z,17.03
2016-07-31T03:47:34.072Z,17
2016-07-31T03:48:34.001Z,16.95
2016-07-31T03:49:34.075Z,16.97
2016-07-31T03:50:34.161Z,16.95
2016-07-31T03:51:34.182Z,16.94
2016-07-31T03:52:34.019Z,16.91
2016-07-31T03:53:34.099Z,16.9
2016-07-31T03:54:34.113Z,16.87
2016-07-31T03:55:34.019Z,16.87
2016-07-31T03:56:34.132Z,16.87
2016-07-31T03:57:34.108Z,16.88
2016-07-31T03:59:34.122Z,16.9
2016-07-31T04:00:34.035Z,16.88
2016-07-31T04:01:34.192Z,16.85
2016-07-31T04:02:34.051Z,16.88
2016-07-31T04:03:34.195Z,16.82
2016-07-31T04:04:34.123Z,16.88
2016-07-31T04:05:34.205Z,16.91
2016-07-31T04:06:34.052Z,16.88
2016-07-31T04:07:34.206Z,16.82
2016-07-31T04:08:34.225Z,16.82
2016-07-31T04:09:34.069Z,16.87
2016-07-31T04:10:34.162Z,16.77
2016-07-31T04:11:34.237Z,16.88
2016-07-31T04:12:34.167Z,16.99
2016-07-31T04:14:34.231Z,16.88
2016-07-31T04:15:34.167Z,16.88
2016-07-31T04:16:34.186Z,16.92
2016-07-31T04:17:34.158Z,16.95
2016-07-31T04:18:34.255Z,17
2016-07-31T04:19:34.165Z,16.95
2016-07-31T04:20:34.248Z,16.88
2016-07-31T04:21:34.179Z,16.9
2016-07-31T04:22:34.184Z,16.8
2016-07-31T04:23:34.176Z,16.91
2016-07-31T04:24:34.254Z,16.91
2016-07-31T04:25:34.100Z,16.87
2016-07-31T04:26:34.270Z,16.81
2016-07-31T04:27:34.101Z,16.81
2016-07-31T04:28:34.108Z,16.8
2016-07-31T04:29:34.267Z,16.8
2016-07-31T04:30:34.233Z,16.8
2016-07-31T04:31:34.128Z,16.8
2016-07-31T04:32:34.272Z,16.82
2016-07-31T04:33:34.281Z,16.73
2016-07-31T04:34:34.287Z,16.77
2016-07-31T04:35:34.215Z,16.8
2016-07-31T04:36:34.215Z,16.73
2016-07-31T04:37:34.221Z,16.85
2016-07-31T04:38:34.228Z,16.88
2016-07-31T04:39:34.228Z,16.84
2016-07-31T04:40:34.152Z,16.81
2016-07-31T04:41:34.247Z,16.74
2016-07-31T04:42:34.225Z,16.76
2016-07-31T04:43:34.234Z,16.82
2016-07-31T04:44:34.237Z,16.81
2016-07-31T04:45:34.245Z,16.74
2016-07-31T04:46:34.239Z,16.76
2016-07-31T04:47:34.248Z,16.76
2016-07-31T04:48:34.200Z,16.69
2016-07-31T04:49:34.360Z,16.72
2016-07-31T04:50:34.259Z,16.63
2016-07-31T04:51:34.259Z,16.69
2016-07-31T04:52:34.259Z,16.74
2016-07-31T04:53:34.181Z,16.7
2016-07-31T04:54:34.340Z,16.66
2016-07-31T04:55:34.270Z,16.69
2016-07-31T04:56:34.267Z,16.76
2016-07-31T04:57:34.200Z,16.72
2016-07-31T04:58:34.277Z,16.8
2016-07-31T04:59:34.288Z,16.77
2016-07-31T05:00:34.209Z,16.82
2016-07-31T05:01:34.284Z,16.7
2016-07-31T05:02:34.291Z,16.74
2016-07-31T05:03:34.303Z,16.74
2016-07-31T05:04:34.242Z,16.77
2016-07-31T05:05:34.307Z,16.76
2016-07-31T05:06:34.323Z,16.77
2016-07-31T05:07:34.236Z,16.82
2016-07-31T05:08:34.303Z,16.73
2016-07-31T05:09:34.260Z,16.76
2016-07-31T05:10:34.397Z,16.8
2016-07-31T05:11:34.237Z,16.84
2016-07-31T05:12:34.319Z,16.81
2016-07-31T05:13:34.331Z,16.85
2016-07-31T05:14:34.262Z,16.88
2016-07-31T05:15:34.329Z,16.88
2016-07-31T05:16:34.328Z,16.88
2016-07-31T05:17:34.272Z,16.92
2016-07-31T05:18:34.366Z,16.92
2016-07-31T05:19:34.418Z,16.9
2016-07-31T05:20:34.416Z,16.94
2016-07-31T05:21:34.350Z,16.94
2016-07-31T05:22:34.356Z,16.99
2016-07-31T05:23:34.415Z,17.02
2016-07-31T05:24:34.355Z,16.92
2016-07-31T05:25:34.356Z,16.95
2016-07-31T05:26:34.363Z,16.97
2016-07-31T05:27:34.366Z,17.09
2016-07-31T05:28:34.411Z,17.06
2016-07-31T05:29:34.385Z,17.03
2016-07-31T05:30:34.376Z,17.12
2016-07-31T05:31:34.378Z,17.09
2016-07-31T05:32:34.306Z,17.09
2016-07-31T05:33:34.304Z,17.09
2016-07-31T05:34:34.454Z,17.15
2016-07-31T05:35:34.404Z,17.1
2016-07-31T05:36:34.397Z,17.21
2016-07-31T05:37:34.323Z,17.21
2016-07-31T05:38:34.407Z,17.24
2016-07-31T05:39:34.347Z,17.2
2016-07-31T05:40:34.334Z,17.21
2016-07-31T05:41:34.337Z,17.18
2016-07-31T05:42:34.502Z,17.2
2016-07-31T05:43:34.348Z,17.15
2016-07-31T05:44:34.342Z,17.25
2016-07-31T05:45:34.422Z,17.22
2016-07-31T05:46:34.419Z,17.1
2016-07-31T05:47:34.570Z,17.2
2016-07-31T05:48:34.439Z,17.17
2016-07-31T05:49:34.506Z,17.24
2016-07-31T05:50:34.513Z,17.18
2016-07-31T05:51:34.353Z,17.22
2016-07-31T05:52:34.345Z,17.22
2016-07-31T05:53:34.361Z,17.3
2016-07-31T05:54:34.511Z,17.32
2016-07-31T05:55:34.367Z,17.36
2016-07-31T05:56:34.521Z,17.32
2016-07-31T05:57:34.431Z,17.28
2016-07-31T05:58:34.533Z,17.32
2016-07-31T05:59:34.467Z,17.31
2016-07-31T06:00:34.534Z,17.24
2016-07-31T06:01:34.381Z,17.25
2016-07-31T06:02:34.459Z,17.31
2016-07-31T06:03:34.389Z,17.28
2016-07-31T06:04:34.460Z,17.3
2016-07-31T06:05:34.397Z,17.31
2016-07-31T06:06:34.480Z,17.28
2016-07-31T06:07:34.551Z,17.32
2016-07-31T06:08:34.555Z,17.3
2016-07-31T06:09:34.478Z,17.27
2016-07-31T06:10:34.487Z,17.32
2016-07-31T06:11:34.569Z,17.42
2016-07-31T06:12:34.484Z,17.42
2016-07-31T06:13:34.422Z,17.43
2016-07-31T06:14:34.506Z,17.45
2016-07-31T06:15:34.509Z,17.42
2016-07-31T06:16:34.644Z,17.43
2016-07-31T06:17:34.510Z,17.45
2016-07-31T06:18:34.490Z,17.42
2016-07-31T06:19:34.471Z,17.45
2016-07-31T06:20:34.438Z,17.5
2016-07-31T06:21:34.537Z,17.55
2016-07-31T06:22:34.590Z,17.54
2016-07-31T06:23:34.449Z,17.57
2016-07-31T06:24:34.521Z,17.57
2016-07-31T06:25:34.526Z,17.55
2016-07-31T06:26:34.608Z,17.69
2016-07-31T06:27:34.556Z,17.74
2016-07-31T06:28:34.729Z,17.68
2016-07-31T06:29:34.621Z,17.66
2016-07-31T06:30:34.619Z,17.68
2016-07-31T06:31:34.600Z,17.63
2016-07-31T06:32:34.623Z,17.68
2016-07-31T06:33:34.552Z,17.76
2016-07-31T06:34:34.479Z,17.74
2016-07-31T06:35:34.646Z,17.77
2016-07-31T06:36:34.494Z,17.66
2016-07-31T06:37:34.570Z,17.63
2016-07-31T06:38:34.640Z,17.62
2016-07-31T06:39:34.574Z,17.66
2016-07-31T06:40:34.647Z,17.62
2016-07-31T06:41:34.521Z,17.58
2016-07-31T06:42:34.582Z,17.55
2016-07-31T06:43:34.662Z,17.58
2016-07-31T06:44:34.650Z,17.55
2016-07-31T06:45:34.584Z,17.66
2016-07-31T06:46:34.590Z,17.58
2016-07-31T06:47:34.603Z,17.55
2016-07-31T06:48:34.584Z,17.71
2016-07-31T06:49:34.596Z,17.68
2016-07-31T06:50:34.615Z,17.66
2016-07-31T06:51:34.600Z,17.69
2016-07-31T06:52:34.629Z,17.74
2016-07-31T06:53:34.615Z,17.77
2016-07-31T06:54:34.704Z,17.69
2016-07-31T06:55:34.692Z,17.77
2016-07-31T06:56:34.695Z,17.77
2016-07-31T06:57:34.610Z,17.68
2016-07-31T06:58:34.692Z,17.58
2016-07-31T06:59:34.546Z,17.73
2016-07-31T07:00:34.632Z,17.77
2016-07-31T07:01:34.711Z,17.81
2016-07-31T07:02:34.695Z,17.77
2016-07-31T07:03:34.712Z,17.68
2016-07-31T07:04:34.642Z,17.68
2016-07-31T07:05:34.641Z,17.73
2016-07-31T07:06:34.566Z,17.88
2016-07-31T07:07:34.766Z,17.77
2016-07-31T07:08:34.639Z,17.74
2016-07-31T07:09:34.581Z,17.68
2016-07-31T07:10:34.672Z,17.76
2016-07-31T07:11:34.668Z,17.73
2016-07-31T07:12:34.654Z,17.76
2016-07-31T07:13:34.741Z,17.8
2016-07-31T07:14:34.729Z,17.86
2016-07-31T07:15:34.664Z,17.86
2016-07-31T07:16:34.631Z,17.94
2016-07-31T07:17:34.598Z,17.87
2016-07-31T07:18:34.606Z,17.96
2016-07-31T07:19:34.689Z,18.02
2016-07-31T07:20:34.769Z,17.99
2016-07-31T07:21:34.778Z,18.14
2016-07-31T07:22:34.617Z,18.11
2016-07-31T07:23:34.791Z,18.19
2016-07-31T07:24:34.720Z,18.06
2016-07-31T07:25:34.639Z,18.02
2016-07-31T07:26:34.722Z,18.1
2016-07-31T07:27:34.779Z,18.01
2016-07-31T07:28:34.712Z,17.98
2016-07-31T07:30:34.727Z,18.14
2016-07-31T07:31:34.720Z,18.27
2016-07-31T07:32:34.658Z,18.14
2016-07-31T07:33:34.790Z,18.17
2016-07-31T07:34:34.644Z,18.17
2016-07-31T07:35:34.722Z,18.19
2016-07-31T07:36:34.653Z,18.06
2016-07-31T07:37:34.740Z,18.14
2016-07-31T07:38:34.822Z,18.05
2016-07-31T07:39:34.665Z,18.13
2016-07-31T07:40:34.743Z,18.08
2016-07-31T07:41:34.762Z,18.17
2016-07-31T07:42:34.829Z,18.13
2016-07-31T07:43:34.680Z,18.1
2016-07-31T07:44:34.777Z,18.23
2016-07-31T07:45:34.688Z,18.27
2016-07-31T07:46:34.770Z,18.26
2016-07-31T07:47:34.773Z,18.17
2016-07-31T07:48:34.834Z,18.2
2016-07-31T07:49:34.753Z,18.38
2016-07-31T07:50:34.705Z,18.44
2016-07-31T07:51:34.783Z,18.53
2016-07-31T07:52:34.780Z,18.47
2016-07-31T07:53:34.770Z,18.44
2016-07-31T07:54:34.867Z,18.54
2016-07-31T07:55:34.803Z,18.5
2016-07-31T07:56:35.382Z,18.44
2016-07-31T07:57:34.811Z,18.53
2016-07-31T07:58:34.808Z,18.36
2016-07-31T07:59:34.751Z,18.49
2016-07-31T08:00:34.722Z,18.54
2016-07-31T08:01:34.891Z,18.42
2016-07-31T08:02:34.882Z,18.59
2016-07-31T08:03:34.876Z,18.53
2016-07-31T08:04:34.732Z,18.66
2016-07-31T08:05:34.913Z,18.78
2016-07-31T08:06:34.816Z,18.76
2016-07-31T08:07:34.827Z,18.71
2016-07-31T08:08:34.819Z,18.75
2016-07-31T08:09:34.826Z,18.68
2016-07-31T08:10:34.749Z,18.68
2016-07-31T08:11:34.899Z,18.72
2016-07-31T08:12:34.833Z,18.75
2016-07-31T08:13:34.925Z,18.82
2016-07-31T08:15:34.914Z,18.57
2016-07-31T08:16:34.842Z,18.51
2016-07-31T08:17:34.765Z,18.54
2016-07-31T08:18:34.914Z,18.49
2016-07-31T08:19:34.862Z,18.29
2016-07-31T08:20:34.862Z,18.32
2016-07-31T08:21:34.873Z,18.34
2016-07-31T08:22:34.860Z,18.26
2016-07-31T08:23:34.940Z,18.32
2016-07-31T08:24:34.952Z,18.45
2016-07-31T08:25:34.946Z,18.59
2016-07-31T08:26:34.961Z,18.51
2016-07-31T08:27:34.878Z,18.61
2016-07-31T08:28:34.877Z,18.56
2016-07-31T08:30:34.893Z,18.5
2016-07-31T08:31:34.989Z,18.49
2016-07-31T08:32:34.831Z,18.54
2016-07-31T08:33:34.824Z,18.41
2016-07-31T08:34:34.965Z,18.63
2016-07-31T08:35:35.023Z,18.66
2016-07-31T08:36:34.994Z,18.61
2016-07-31T08:37:34.834Z,18.61
2016-07-31T08:38:34.994Z,18.71
2016-07-31T08:39:34.904Z,18.81
2016-07-31T08:40:34.918Z,18.89
2016-07-31T08:41:34.922Z,18.86
2016-07-31T08:42:34.962Z,18.84
2016-07-31T08:43:34.923Z,18.75
2016-07-31T08:45:34.891Z,18.91
2016-07-31T08:46:34.854Z,18.94
2016-07-31T08:47:34.937Z,18.69
2016-07-31T08:48:34.944Z,18.75
2016-07-31T08:49:35.010Z,18.78
2016-07-31T08:50:34.863Z,18.84
2016-07-31T08:51:34.948Z,18.76
2016-07-31T08:52:35.029Z,18.72
2016-07-31T08:53:34.865Z,18.71
2016-07-31T08:54:35.028Z,18.72
2016-07-31T08:55:34.947Z,18.69
2016-07-31T08:56:35.012Z,18.86
2016-07-31T08:57:34.960Z,18.99
2016-07-31T08:58:34.983Z,19.13
2016-07-31T08:59:34.968Z,18.9
2016-07-31T09:00:34.984Z,18.9
2016-07-31T09:01:34.992Z,19.05
2016-07-31T09:02:34.905Z,19.09
2016-07-31T09:03:35.047Z,19.19
2016-07-31T09:04:35.002Z,19.16
2016-07-31T09:05:34.979Z,19.07
2016-07-31T09:06:34.979Z,18.96
2016-07-31T09:07:35.008Z,18.9
2016-07-31T09:08:34.927Z,18.96
2016-07-31T09:09:35.009Z,19.07
2016-07-31T09:10:35.070Z,19.09
2016-07-31T09:11:35.074Z,19.28
2016-07-31T09:12:34.930Z,19.32
2016-07-31T09:13:35.089Z,19.28
2016-07-31T09:14:34.942Z,19.1
2016-07-31T09:15:35.031Z,19.1
2016-07-31T09:16:34.938Z,19.15
2016-07-31T09:17:35.098Z,19.43
2016-07-31T09:18:34.953Z,19.63
2016-07-31T09:19:35.027Z,19.71
2016-07-31T09:20:35.019Z,19.5
2016-07-31T09:21:34.959Z,19.52
2016-07-31T09:22:35.047Z,19.55
2016-07-31T09:23:35.116Z,19.5
2016-07-31T09:24:35.061Z,19.71
2016-07-31T09:25:35.123Z,19.47
2016-07-31T09:26:35.083Z,19.61
2016-07-31T09:27:35.050Z,19.79
2016-07-31T09:28:34.972Z,20.12
2016-07-31T09:29:35.157Z,20.11
2016-07-31T09:30:35.073Z,20.15
2016-07-31T09:31:35.075Z,20.2
2016-07-31T09:32:35.145Z,20.22
2016-07-31T09:33:35.104Z,20.29
2016-07-31T09:34:35.076Z,20.37
2016-07-31T09:35:35.001Z,20.71
2016-07-31T09:36:35.112Z,20.85
2016-07-31T09:37:34.996Z,20.96
2016-07-31T09:38:35.006Z,21.18
2016-07-31T09:39:35.150Z,21.18
2016-07-31T09:40:35.011Z,20.71
2016-07-31T09:41:35.160Z,20.64
2016-07-31T09:42:35.110Z,20.2
2016-07-31T09:43:35.165Z,20.12
2016-07-31T09:44:35.178Z,20.19
2016-07-31T09:45:35.088Z,20.25
2016-07-31T09:46:35.112Z,20.38
2016-07-31T09:47:35.030Z,20.6
2016-07-31T09:48:35.036Z,20.58
2016-07-31T09:49:35.034Z,20.53
2016-07-31T09:50:35.045Z,20.78
2016-07-31T09:51:35.109Z,20.72
2016-07-31T09:52:35.053Z,20.74
2016-07-31T09:53:35.197Z,20.81
2016-07-31T09:54:35.130Z,20.83
2016-07-31T09:55:35.133Z,20.46
2016-07-31T09:56:35.210Z,20.42
2016-07-31T09:57:35.067Z,20.57
2016-07-31T09:58:35.155Z,20.44
2016-07-31T09:59:35.130Z,20.22
2016-07-31T10:00:35.068Z,20.26
2016-07-31T10:01:35.079Z,20.38
2016-07-31T10:02:35.076Z,20.29
2016-07-31T10:03:35.150Z,20.3
2016-07-31T10:04:35.252Z,20.41
2016-07-31T10:05:35.159Z,20.48
2016-07-31T10:06:35.093Z,20.38
2016-07-31T10:07:35.157Z,20.42
2016-07-31T10:08:35.247Z,20.4
2016-07-31T10:09:35.087Z,20.35
2016-07-31T10:10:36.044Z,20.34
2016-07-31T10:11:35.110Z,20.38
2016-07-31T10:12:35.177Z,20.3
2016-07-31T10:13:35.277Z,20.3
2016-07-31T10:14:35.184Z,20.18
2016-07-31T10:15:35.203Z,20.07
2016-07-31T10:16:35.121Z,20.12
2016-07-31T10:17:35.266Z,20.1
2016-07-31T10:18:35.258Z,20.15
2016-07-31T10:19:35.122Z,19.92
2016-07-31T10:20:35.280Z,19.92
2016-07-31T10:21:35.278Z,19.86
2016-07-31T10:22:35.137Z,19.9
2016-07-31T10:23:35.144Z,19.85
2016-07-31T10:24:35.251Z,19.74
2016-07-31T10:25:35.227Z,19.68
2016-07-31T10:26:35.151Z,19.83
2016-07-31T10:27:35.148Z,19.85
2016-07-31T10:28:35.247Z,19.9
2016-07-31T10:29:35.157Z,19.92
2016-07-31T10:30:35.457Z,19.89
2016-07-31T10:31:35.313Z,20.07
2016-07-31T10:32:35.325Z,20.02
2016-07-31T10:33:35.159Z,19.87
2016-07-31T10:34:35.248Z,19.75
2016-07-31T10:35:35.255Z,19.72
2016-07-31T10:36:35.170Z,19.53
2016-07-31T10:37:35.246Z,19.55
2016-07-31T10:38:35.182Z,19.55
2016-07-31T10:39:35.336Z,19.56
2016-07-31T10:40:35.253Z,19.72
2016-07-31T10:41:35.267Z,19.78
2016-07-31T10:42:35.188Z,19.8
2016-07-31T10:43:35.273Z,20.01
2016-07-31T10:44:35.339Z,20.04
2016-07-31T10:45:35.200Z,20.19
2016-07-31T10:46:35.333Z,20.27
2016-07-31T10:47:35.346Z,20.26
2016-07-31T10:48:35.209Z,20.4
2016-07-31T10:49:35.287Z,20.41
2016-07-31T10:50:35.221Z,20.41
2016-07-31T10:51:35.285Z,20.3
2016-07-31T10:52:35.286Z,20.32
2016-07-31T10:53:35.291Z,20.4
2016-07-31T10:54:35.382Z,20.41
2016-07-31T10:55:35.385Z,20.41
2016-07-31T10:56:35.334Z,20.57
2016-07-31T10:57:35.392Z,20.56
2016-07-31T10:58:35.306Z,20.46
2016-07-31T10:59:35.321Z,20.26
2016-07-31T11:00:35.325Z,20.29
2016-07-31T11:01:35.323Z,20.23
2016-07-31T11:02:35.320Z,20.25
2016-07-31T11:03:35.348Z,20.08
2016-07-31T11:04:35.368Z,20.01
2016-07-31T11:05:35.333Z,20.07
2016-07-31T11:06:35.272Z,20.18
2016-07-31T11:07:35.335Z,20.19
2016-07-31T11:08:35.353Z,20.38
2016-07-31T11:09:35.348Z,20.32
2016-07-31T11:10:35.289Z,20.42
2016-07-31T11:11:35.356Z,20.44
2016-07-31T11:12:35.348Z,20.41
2016-07-31T11:13:35.370Z,20.38
2016-07-31T11:14:35.281Z,20.53
2016-07-31T11:15:35.322Z,20.6
2016-07-31T11:16:35.441Z,20.72
2016-07-31T11:17:35.448Z,20.81
2016-07-31T11:18:35.307Z,20.67
2016-07-31T11:19:35.360Z,20.91
2016-07-31T11:20:35.368Z,20.97
2016-07-31T11:21:35.389Z,21.03
2016-07-31T11:22:35.372Z,20.78
2016-07-31T11:23:35.389Z,20.86
2016-07-31T11:24:35.474Z,20.82
2016-07-31T11:25:35.408Z,21.04
2016-07-31T11:26:35.419Z,20.98
2016-07-31T11:27:35.405Z,20.86
2016-07-31T11:28:35.416Z,21
2016-07-31T11:29:35.416Z,21.09
2016-07-31T11:30:35.596Z,21
2016-07-31T11:31:35.507Z,21.18
2016-07-31T11:32:35.340Z,20.94
2016-07-31T11:33:35.426Z,21.11
2016-07-31T11:34:35.419Z,21.08
2016-07-31T11:35:35.429Z,21.15
2016-07-31T11:36:35.410Z,21.31
2016-07-31T11:37:35.436Z,21.37
2016-07-31T11:38:35.445Z,21.36
2016-07-31T11:39:35.510Z,21.55
2016-07-31T11:40:35.435Z,21.59
2016-07-31T11:41:35.437Z,21.55
2016-07-31T11:42:35.507Z,21.66
2016-07-31T11:43:35.382Z,21.76
2016-07-31T11:44:35.447Z,21.73
2016-07-31T11:45:35.456Z,21.62
2016-07-31T11:46:35.463Z,21.58
2016-07-31T11:47:35.464Z,21.38
2016-07-31T11:48:35.385Z,21.38
2016-07-31T11:49:35.463Z,21.55
2016-07-31T11:50:35.386Z,21.58
2016-07-31T11:51:35.474Z,21.46
2016-07-31T11:52:35.483Z,21.59
2016-07-31T11:53:35.469Z,21.41
2016-07-31T11:54:35.432Z,21.27
2016-07-31T11:55:35.484Z,21.18
2016-07-31T11:56:35.489Z,21.22
2016-07-31T11:57:35.505Z,21.16
2016-07-31T11:58:35.558Z,21.08
2016-07-31T11:59:35.513Z,21.01
2016-07-31T12:01:35.432Z,20.78
2016-07-31T12:02:35.494Z,20.63
2016-07-31T12:03:35.509Z,20.38
2016-07-31T12:04:35.431Z,20.34
2016-07-31T12:05:35.591Z,20.19
2016-07-31T12:06:35.523Z,20.04
2016-07-31T12:07:35.634Z,20.05
2016-07-31T12:08:35.617Z,19.89
2016-07-31T12:09:35.452Z,19.86
2016-07-31T12:10:35.444Z,19.82
2016-07-31T12:11:35.615Z,19.71
2016-07-31T12:12:35.525Z,19.92
2016-07-31T12:13:35.470Z,19.67
2016-07-31T12:14:35.603Z,19.72
2016-07-31T12:16:35.633Z,19.61
2016-07-31T12:17:35.456Z,19.65
2016-07-31T12:18:35.534Z,19.57
2016-07-31T12:19:35.475Z,19.49
2016-07-31T12:20:35.629Z,19.64
2016-07-31T12:21:35.550Z,19.49
2016-07-31T12:22:35.482Z,19.52
2016-07-31T12:23:35.525Z,19.65
2016-07-31T12:24:35.489Z,19.72
2016-07-31T12:25:35.643Z,19.71
2016-07-31T12:26:35.647Z,19.79
2016-07-31T12:27:35.493Z,19.89
2016-07-31T12:28:35.581Z,19.93
2016-07-31T12:29:35.577Z,19.97
2016-07-31T12:30:35.865Z,20.07
2016-07-31T12:31:35.667Z,20.07
2016-07-31T12:32:35.594Z,20.1
2016-07-31T12:33:35.662Z,20.18
2016-07-31T12:34:35.664Z,20.05
2016-07-31T12:35:35.595Z,19.98
2016-07-31T12:36:35.671Z,19.9
2016-07-31T12:37:35.601Z,20.02
2016-07-31T12:38:35.536Z,20.02
2016-07-31T12:39:35.524Z,20.16
2016-07-31T12:40:35.606Z,20.34
2016-07-31T12:41:35.542Z,20.42
2016-07-31T12:42:35.736Z,20.57
2016-07-31T12:43:35.616Z,20.66
2016-07-31T12:44:35.628Z,20.91
2016-07-31T12:45:35.626Z,21.06
2016-07-31T12:46:35.705Z,21.27
2016-07-31T12:47:35.653Z,21.37
2016-07-31T12:48:35.563Z,21.45
2016-07-31T12:49:35.651Z,21.58
2016-07-31T12:50:35.723Z,21.82
2016-07-31T12:51:35.647Z,21.93
2016-07-31T12:52:35.651Z,22.11
2016-07-31T12:53:35.724Z,22.16
2016-07-31T12:54:35.665Z,22.18
2016-07-31T12:55:35.667Z,22.11
2016-07-31T12:56:35.656Z,22.14
2016-07-31T12:57:35.654Z,21.96
2016-07-31T12:58:35.669Z,21.85
2016-07-31T12:59:35.671Z,21.89
2016-07-31T13:00:35.713Z,21.38
2016-07-31T13:01:35.701Z,21.4
2016-07-31T13:02:35.685Z,21.38
2016-07-31T13:03:35.670Z,21.19
2016-07-31T13:04:35.673Z,21.18